Time;durP1;ratioP1;P1;durP2;ratioP2;P2;SDS_P1;SDS_P2;PMS_P1;PMS_P2;Temp;Humidity;BMP_temperature;BMP_pressure;BME280_temperature;BME280_humidity;BME280_pressure;Samples;Min_cycle;Max_cycle;Signal;HPM_P1;HPM_P2
2021/07/31 00:01:08;;;;;;;11.63;5.32;;;;;;;17.60;100.00;96369.72;5007452;28;20100;-64
2021/07/31 00:03:34;;;;;;;14.13;5.18;;;;;;;17.61;100.00;96365.72;5020515;28;20509;-61
2021/07/31 00:05:59;;;;;;;8.35;4.90;;;;;;;17.54;100.00;96364.66;5014651;28;20045;-62
2021/07/31 00:08:25;;;;;;;17.85;6.53;;;;;;;17.74;100.00;96377.78;4992199;28;20061;-62
2021/07/31 00:10:51;;;;;;;8.18;4.55;;;;;;;17.91;100.00;96368.41;5011294;28;20498;-62
2021/07/31 00:13:17;;;;;;;8.68;4.30;;;;;;;17.91;100.00;96371.16;5004763;28;20053;-64
2021/07/31 00:15:42;;;;;;;9.85;4.57;;;;;;;18.06;100.00;96363.41;5016051;28;20107;-64
2021/07/31 00:18:08;;;;;;;8.52;5.10;;;;;;;17.96;100.00;96370.69;5005235;28;20042;-64
2021/07/31 00:20:34;;;;;;;8.15;4.38;;;;;;;17.79;100.00;96360.69;5011074;28;20130;-63
2021/07/31 00:22:59;;;;;;;9.23;5.47;;;;;;;17.53;100.00;96367.84;5004316;28;20042;-64
2021/07/31 00:25:25;;;;;;;8.05;5.20;;;;;;;17.45;100.00;96369.16;5001087;28;20041;-64
2021/07/31 00:27:50;;;;;;;11.60;4.78;;;;;;;17.40;100.00;96362.13;5014094;28;20077;-63
2021/07/31 00:30:15;;;;;;;10.40;5.32;;;;;;;17.40;100.00;96364.88;5016427;28;20107;-62
2021/07/31 00:32:41;;;;;;;13.02;5.35;;;;;;;17.42;100.00;96372.78;5020985;28;20124;-62
2021/07/31 00:35:07;;;;;;;12.07;4.88;;;;;;;17.48;100.00;96371.09;5008748;28;20041;-63
2021/07/31 00:37:32;;;;;;;10.63;5.47;;;;;;;17.53;100.00;96360.31;5003313;28;20052;-62
2021/07/31 00:39:58;;;;;;;12.88;5.85;;;;;;;17.54;100.00;96367.44;5012755;28;20483;-63
2021/07/31 00:42:23;;;;;;;13.10;5.03;;;;;;;17.73;100.00;96362.38;5003535;28;20535;-63
2021/07/31 00:44:49;;;;;;;7.63;4.32;;;;;;;17.83;100.00;96360.63;5002820;28;20042;-61
2021/07/31 00:47:14;;;;;;;9.02;4.63;;;;;;;17.77;100.00;96354.75;5007658;28;20124;-63
2021/07/31 00:49:41;;;;;;;8.48;4.60;;;;;;;17.39;100.00;96350.28;5007314;28;20044;-64
2021/07/31 00:52:07;;;;;;;12.27;4.97;;;;;;;17.19;100.00;96352.94;4999177;28;20060;-64
2021/07/31 00:54:34;;;;;;;14.85;5.18;;;;;;;17.04;100.00;96351.59;5015349;28;20429;-62
2021/07/31 00:57:00;;;;;;;12.90;5.90;;;;;;;17.05;100.00;96353.16;5020527;28;20535;-61
2021/07/31 00:59:26;;;;;;;11.30;5.60;;;;;;;17.04;100.00;96357.13;4998195;28;20483;-62
2021/07/31 01:01:51;;;;;;;8.98;4.97;;;;;;;17.10;100.00;96349.91;5022858;28;20095;-64
2021/07/31 01:04:17;;;;;;;13.27;5.10;;;;;;;17.16;100.00;96347.44;5015631;28;20068;-64
2021/07/31 01:06:42;;;;;;;9.13;4.47;;;;;;;17.25;100.00;96356.03;5016777;28;20052;-64
2021/07/31 01:09:08;;;;;;;10.90;4.88;;;;;;;17.29;100.00;96351.22;4999171;28;20076;-63
2021/07/31 01:11:35;;;;;;;10.93;5.68;;;;;;;17.21;100.00;96352.50;5014978;28;20041;-62
2021/07/31 01:14:01;;;;;;;9.80;5.22;;;;;;;17.18;100.00;96351.38;5020624;28;20048;-63
2021/07/31 01:16:27;;;;;;;16.30;5.95;;;;;;;17.19;100.00;96350.16;4996387;28;20096;-65
2021/07/31 01:18:52;;;;;;;13.52;5.50;;;;;;;17.00;100.00;96345.34;5016437;28;20049;-65
2021/07/31 01:21:38;;;;;;;19.20;6.80;;;;;;;16.77;100.00;96343.25;5016345;28;20069;-63
2021/07/31 01:24:08;;;;;;;20.25;8.57;;;;;;;16.60;100.00;96348.63;5000605;28;20402;-66
2021/07/31 01:26:41;;;;;;;;;;;;;;;16.62;100.00;96348.22;5001955;28;20133;-64
2021/07/31 01:29:08;;;;;;;22.27;6.45;;;;;;;16.57;100.00;96352.19;4977899;28;19914;-64
2021/07/31 01:31:34;;;;;;;14.65;5.65;;;;;;;16.57;100.00;96351.44;5002598;28;20049;-62
2021/07/31 01:34:00;;;;;;;14.10;6.57;;;;;;;16.60;100.00;96347.81;4999831;28;20042;-63
2021/07/31 01:36:26;;;;;;;9.90;6.32;;;;;;;16.60;100.00;96342.28;4997342;28;20046;-63
2021/07/31 01:38:51;;;;;;;9.90;5.13;;;;;;;16.64;100.00;96334.75;5021665;28;20033;-63
2021/07/31 01:41:17;;;;;;;16.20;6.15;;;;;;;16.58;100.00;96331.66;5015596;28;20136;-64
2021/07/31 01:43:43;;;;;;;9.38;6.25;;;;;;;16.55;100.00;96326.97;5018939;28;20494;-64
2021/07/31 01:46:08;;;;;;;13.95;5.78;;;;;;;16.53;100.00;96331.31;5016251;28;20160;-65
2021/07/31 01:48:33;;;;;;;15.02;6.70;;;;;;;16.54;100.00;96338.44;5022139;28;20634;-65
2021/07/31 01:50:59;;;;;;;10.40;5.65;;;;;;;16.46;100.00;96337.75;5016722;28;20098;-63
2021/07/31 01:53:24;;;;;;;13.55;6.90;;;;;;;16.40;100.00;96333.84;5012897;28;20041;-64
2021/07/31 01:55:49;;;;;;;16.85;6.57;;;;;;;16.38;100.00;96328.72;5021152;28;20045;-64
2021/07/31 01:58:15;;;;;;;11.05;6.60;;;;;;;16.35;100.00;96326.00;5014906;28;20132;-64
2021/07/31 02:00:40;;;;;;;14.38;6.47;;;;;;;16.37;100.00;96323.66;5020368;28;20041;-65
2021/07/31 02:03:05;;;;;;;11.55;6.85;;;;;;;16.52;100.00;96327.00;5014715;28;20045;-63
2021/07/31 02:05:31;;;;;;;12.10;6.32;;;;;;;16.63;100.00;96328.41;5017142;28;20152;-65
2021/07/31 02:07:56;;;;;;;9.52;5.43;;;;;;;16.80;100.00;96325.84;5003840;28;20475;-65
2021/07/31 02:10:22;;;;;;;9.93;5.15;;;;;;;17.02;100.00;96320.81;5016446;28;20052;-65
2021/07/31 02:12:47;;;;;;;8.45;5.05;;;;;;;17.12;100.00;96325.38;5020121;28;20080;-65
2021/07/31 02:15:12;;;;;;;8.25;5.00;;;;;;;17.17;100.00;96324.13;4997285;28;20048;-64
2021/07/31 02:17:38;;;;;;;10.52;5.50;;;;;;;17.26;100.00;96329.13;5014464;28;20133;-65
2021/07/31 02:20:04;;;;;;;6.80;4.47;;;;;;;17.41;100.00;96321.38;5005283;28;20045;-64
2021/07/31 02:22:30;;;;;;;11.23;5.72;;;;;;;17.41;100.00;96326.91;5010144;28;20051;-61
2021/07/31 02:24:56;;;;;;;9.52;5.25;;;;;;;17.25;100.00;96316.47;5010781;28;20045;-65
2021/07/31 02:27:21;;;;;;;10.13;5.53;;;;;;;17.09;100.00;96320.69;4999915;28;20049;-64
2021/07/31 02:29:47;;;;;;;11.27;5.38;;;;;;;17.02;100.00;96306.97;5003721;28;20038;-62
2021/07/31 02:32:13;;;;;;;8.25;5.53;;;;;;;16.80;100.00;96310.03;5009971;28;20095;-62
2021/07/31 02:34:38;;;;;;;8.80;5.38;;;;;;;16.59;100.00;96305.56;5012389;28;20045;-64
2021/07/31 02:37:03;;;;;;;11.30;6.15;;;;;;;16.53;100.00;96306.44;5003335;28;20501;-66
2021/07/31 02:39:29;;;;;;;14.02;6.55;;;;;;;16.43;100.00;96308.16;5004418;28;20097;-64
2021/07/31 02:41:54;;;;;;;12.68;6.32;;;;;;;16.47;100.00;96317.19;4999713;28;20060;-64
2021/07/31 02:44:20;;;;;;;12.00;6.10;;;;;;;16.87;100.00;96325.78;4998432;28;20044;-62
2021/07/31 02:46:45;;;;;;;10.02;5.57;;;;;;;16.97;100.00;96312.97;4996136;28;20038;-64
2021/07/31 02:49:10;;;;;;;10.32;5.45;;;;;;;17.15;100.00;96315.47;5013157;28;20455;-63
2021/07/31 02:51:36;;;;;;;14.18;7.00;;;;;;;17.34;100.00;96316.72;5010920;28;20052;-64
2021/07/31 02:54:01;;;;;;;11.18;5.57;;;;;;;17.35;100.00;96315.53;5009028;28;20077;-64
2021/07/31 02:56:27;;;;;;;19.67;7.25;;;;;;;17.37;100.00;96311.13;4992688;28;20128;-65
2021/07/31 02:58:52;;;;;;;16.20;6.97;;;;;;;17.43;100.00;96310.66;5009236;28;20042;-64
2021/07/31 03:01:18;;;;;;;14.93;5.88;;;;;;;17.34;100.00;96305.66;5014622;28;20104;-64
2021/07/31 03:03:43;;;;;;;8.05;5.38;;;;;;;17.36;100.00;96308.81;5010795;28;20056;-64
2021/07/31 03:06:08;;;;;;;10.30;4.60;;;;;;;17.38;100.00;96306.41;5010849;28;20042;-65
2021/07/31 03:08:34;;;;;;;7.88;5.18;;;;;;;17.45;100.00;96316.53;5008074;28;20061;-63
2021/07/31 03:11:02;;;;;;;11.63;4.70;;;;;;;17.54;100.00;96311.28;5000062;28;20046;-64
2021/07/31 03:13:28;;;;;;;12.38;6.20;;;;;;;17.21;100.00;96311.00;4985483;28;20049;-64
2021/07/31 03:15:54;;;;;;;15.07;6.20;;;;;;;16.69;100.00;96306.63;5014443;28;20046;-62
2021/07/31 03:18:23;;;;;;;10.43;5.93;;;;;;;16.58;100.00;96304.00;5009662;28;20494;-64
2021/07/31 03:20:51;;;;;;;15.27;6.57;;;;;;;16.56;100.00;96308.38;5009871;28;20053;-64
2021/07/31 03:23:19;;;;;;;8.48;6.18;;;;;;;16.52;100.00;96302.13;5002385;28;20045;-64
2021/07/31 03:25:45;;;;;;;13.25;6.53;;;;;;;16.50;100.00;96315.59;5019715;28;20136;-63
2021/07/31 03:28:12;;;;;;;9.23;6.18;;;;;;;16.50;100.00;96299.78;5002577;28;20191;-61
2021/07/31 03:30:44;;;;;;;9.25;5.55;;;;;;;16.54;100.00;96308.00;5013881;28;20045;-62
2021/07/31 03:33:12;;;;;;;8.93;6.28;;;;;;;16.54;100.00;96306.03;4994977;28;20047;-62
2021/07/31 03:35:39;;;;;;;11.60;6.13;;;;;;;16.48;100.00;96301.41;5001506;28;20218;-63
2021/07/31 03:38:05;;;;;;;9.95;6.35;;;;;;;16.47;100.00;96308.88;5009063;28;20049;-63
2021/07/31 03:40:31;;;;;;;10.18;5.93;;;;;;;16.59;100.00;96302.03;5014153;28;20399;-60
2021/07/31 03:42:56;;;;;;;10.45;6.10;;;;;;;16.62;100.00;96310.28;5022588;28;20119;-62
2021/07/31 03:45:22;;;;;;;10.95;5.97;;;;;;;16.57;100.00;96304.44;5010157;28;20053;-62
2021/07/31 03:47:48;;;;;;;12.82;6.45;;;;;;;16.62;100.00;96303.97;5011893;28;20054;-63
2021/07/31 03:50:13;;;;;;;9.38;6.05;;;;;;;16.60;100.00;96306.34;5007471;28;20536;-63
2021/07/31 03:52:39;;;;;;;8.32;5.65;;;;;;;16.51;100.00;96306.06;5011569;28;20105;-63
2021/07/31 03:55:06;;;;;;;11.90;6.10;;;;;;;16.36;100.00;96305.47;4994293;28;20046;-64
2021/07/31 03:57:31;;;;;;;8.52;5.82;;;;;;;16.40;100.00;96306.22;5012635;28;20103;-62
2021/07/31 03:59:57;;;;;;;11.10;6.13;;;;;;;16.42;100.00;96299.09;4996490;28;20398;-61
2021/07/31 04:02:22;;;;;;;11.38;6.80;;;;;;;16.41;100.00;96307.78;5015248;28;20055;-62
2021/07/31 04:04:48;;;;;;;10.23;6.32;;;;;;;16.36;100.00;96311.78;5014437;28;20137;-63
2021/07/31 04:07:13;;;;;;;12.70;5.93;;;;;;;16.38;100.00;96311.38;5012967;28;20053;-61
2021/07/31 04:09:39;;;;;;;12.60;6.28;;;;;;;16.41;100.00;96313.31;5014444;28;20052;-61
2021/07/31 04:12:05;;;;;;;14.18;6.32;;;;;;;16.41;100.00;96303.03;5003236;28;20099;-63
2021/07/31 04:14:30;;;;;;;9.23;5.60;;;;;;;16.61;100.00;96307.91;5002766;28;20136;-61
2021/07/31 04:16:56;;;;;;;10.05;5.65;;;;;;;16.86;100.00;96318.66;5012948;28;20057;-61
2021/07/31 04:19:21;;;;;;;11.38;5.45;;;;;;;16.86;100.00;96312.34;5007784;28;20045;-60
2021/07/31 04:21:51;;;;;;;10.88;5.22;;;;;;;16.94;100.00;96322.09;5003927;28;20162;-61
2021/07/31 04:24:16;;;;;;;14.18;5.72;;;;;;;16.76;100.00;96312.06;5002185;28;20072;-62
2021/07/31 04:26:42;;;;;;;10.63;5.47;;;;;;;16.92;100.00;96310.66;5013068;28;20073;-61
2021/07/31 04:29:07;;;;;;;11.02;6.10;;;;;;;16.86;100.00;96304.81;5012716;28;20041;-62
2021/07/31 04:31:33;;;;;;;9.15;5.20;;;;;;;16.79;100.00;96313.19;5018354;28;20107;-59
2021/07/31 04:33:58;;;;;;;7.72;5.28;;;;;;;17.03;100.00;96304.97;5003440;28;20034;-61
2021/07/31 04:36:23;;;;;;;8.00;4.68;;;;;;;17.31;100.00;96306.50;5003853;28;20559;-62
2021/07/31 04:38:49;;;;;;;9.13;5.25;;;;;;;17.33;100.00;96310.41;5008883;28;20085;-61
2021/07/31 04:41:14;;;;;;;7.20;4.57;;;;;;;17.42;100.00;96306.34;4997672;28;20555;-62
2021/07/31 04:43:40;;;;;;;9.10;5.63;;;;;;;17.36;100.00;96309.59;5021198;28;20071;-62
2021/07/31 04:46:05;;;;;;;10.32;5.00;;;;;;;17.30;100.00;96314.00;5006872;28;20107;-63
2021/07/31 04:48:30;;;;;;;11.50;5.43;;;;;;;17.35;100.00;96310.00;5002212;28;20049;-62
2021/07/31 04:51:01;;;;;;;8.77;5.45;;;;;;;17.59;100.00;96308.00;5011735;28;20054;-63
2021/07/31 04:53:27;;;;;;;8.30;4.80;;;;;;;17.81;100.00;96310.38;4983962;28;20084;-63
2021/07/31 04:55:54;;;;;;;8.48;4.63;;;;;;;18.01;100.00;96308.47;5011185;28;20074;-63
2021/07/31 04:58:20;;;;;;;7.18;4.28;;;;;;;18.17;100.00;96310.53;5014463;28;20045;-62
2021/07/31 05:00:48;;;;;;;8.32;4.57;;;;;;;18.41;100.00;96324.31;5011672;28;20616;-63
2021/07/31 05:03:15;;;;;;;8.65;4.80;;;;;;;18.33;98.32;96313.38;4993213;28;20041;-64
2021/07/31 05:05:41;;;;;;;6.72;4.30;;;;;;;18.25;97.74;96309.16;5014420;28;20320;-63
2021/07/31 05:08:07;;;;;;;7.70;4.35;;;;;;;18.29;98.39;96317.41;4996053;28;20122;-63
2021/07/31 05:10:32;;;;;;;7.80;4.40;;;;;;;18.37;97.22;96312.53;5003016;28;20046;-62
2021/07/31 05:12:58;;;;;;;5.97;3.75;;;;;;;18.49;94.84;96309.88;5017364;28;20045;-63
2021/07/31 05:15:23;;;;;;;8.23;4.07;;;;;;;18.85;95.33;96314.69;5005793;28;20046;-61
2021/07/31 05:17:48;;;;;;;6.05;4.18;;;;;;;19.26;90.72;96316.09;5012905;28;20045;-63
2021/07/31 05:20:14;;;;;;;11.02;4.43;;;;;;;19.33;90.81;96317.91;4992749;28;20052;-63
2021/07/31 05:22:39;;;;;;;6.75;4.32;;;;;;;19.05;93.70;96316.59;5013228;28;20072;-61
2021/07/31 05:25:05;;;;;;;8.07;3.47;;;;;;;19.18;93.61;96322.25;5012541;28;20045;-63
2021/07/31 05:27:30;;;;;;;5.88;4.10;;;;;;;19.03;91.80;96311.50;5000974;28;20140;-62
2021/07/31 05:29:56;;;;;;;8.85;4.07;;;;;;;18.63;92.68;96321.88;5012849;28;20127;-61
2021/07/31 05:32:21;;;;;;;8.10;3.97;;;;;;;18.73;93.23;96316.09;4996466;28;20830;-63
2021/07/31 05:34:46;;;;;;;6.70;3.97;;;;;;;19.21;91.14;96319.41;5025503;28;20501;-61
2021/07/31 05:37:12;;;;;;;9.10;3.75;;;;;;;19.31;88.41;96309.25;4989764;28;20581;-63
2021/07/31 05:39:37;;;;;;;6.05;3.63;;;;;;;19.46;87.24;96312.44;5007298;28;20041;-63
2021/07/31 05:42:05;;;;;;;5.50;3.35;;;;;;;19.83;86.24;96315.91;5002341;28;20060;-64
2021/07/31 05:44:34;;;;;;;8.32;3.42;;;;;;;20.22;84.20;96320.41;5014180;28;20096;-63
2021/07/31 05:47:00;;;;;;;5.88;3.47;;;;;;;20.07;83.48;96321.22;5020745;28;20033;-62
2021/07/31 05:49:29;;;;;;;5.45;3.40;;;;;;;20.53;82.13;96319.94;5014022;28;20107;-64
2021/07/31 05:51:55;;;;;;;5.15;2.95;;;;;;;20.90;79.09;96325.22;5011529;28;20046;-64
2021/07/31 05:54:20;;;;;;;6.20;3.20;;;;;;;21.62;76.20;96323.75;5007894;28;20060;-64
2021/07/31 05:56:45;;;;;;;11.88;3.97;;;;;;;22.05;73.13;96318.72;5009657;28;20038;-62
2021/07/31 05:59:11;;;;;;;8.63;3.20;;;;;;;22.00;72.89;96320.06;4981300;28;20037;-61
2021/07/31 06:01:37;;;;;;;4.55;2.90;;;;;;;21.74;73.57;96316.59;5013161;28;20054;-59
2021/07/31 06:04:03;;;;;;;4.72;3.13;;;;;;;21.39;77.28;96320.09;5015281;28;20041;-63
2021/07/31 06:06:28;;;;;;;6.18;3.30;;;;;;;21.63;74.18;96316.19;5005923;28;20050;-61
2021/07/31 06:08:54;;;;;;;7.38;3.03;;;;;;;21.83;73.68;96307.56;4998771;28;20053;-63
2021/07/31 06:11:19;;;;;;;6.72;3.35;;;;;;;21.57;74.89;96307.59;4997312;28;20508;-62
2021/07/31 06:13:44;;;;;;;5.20;3.35;;;;;;;21.75;73.71;96307.00;5018614;28;20052;-62
2021/07/31 06:16:10;;;;;;;4.40;2.80;;;;;;;21.90;74.33;96308.06;5009234;28;20179;-63
2021/07/31 06:18:37;;;;;;;8.65;3.42;;;;;;;22.04;72.16;96303.22;5004871;28;20053;-60
2021/07/31 06:21:13;;;;;;;4.30;2.60;;;;;;;22.08;74.32;96304.66;5001835;28;20030;-63
2021/07/31 06:23:38;;;;;;;4.68;2.88;;;;;;;22.82;72.24;96298.78;5013448;28;20136;-63
2021/07/31 06:26:03;;;;;;;5.35;3.03;;;;;;;23.54;68.96;96298.75;5002467;28;20124;-65
2021/07/31 06:28:29;;;;;;;4.65;2.88;;;;;;;24.73;62.68;96297.97;4989807;28;20057;-64
2021/07/31 06:30:54;;;;;;;4.10;2.83;;;;;;;24.35;64.26;96295.72;5006403;28;20132;-65
2021/07/31 06:33:20;;;;;;;4.38;2.85;;;;;;;23.90;65.55;96303.66;5006451;28;20045;-64
2021/07/31 06:35:45;;;;;;;7.70;3.13;;;;;;;23.84;64.65;96313.88;5015108;28;20072;-65
2021/07/31 06:38:12;;;;;;;5.10;2.90;;;;;;;23.63;63.64;96315.53;5002977;28;20037;-63
2021/07/31 06:40:37;;;;;;;6.38;2.65;;;;;;;22.46;70.81;96309.28;5000668;28;20050;-64
2021/07/31 06:43:02;;;;;;;7.82;3.50;;;;;;;22.16;70.88;96307.97;5010894;28;20517;-65
2021/07/31 06:45:28;;;;;;;5.38;3.17;;;;;;;21.79;70.66;96301.28;5012869;28;20045;-63
2021/07/31 06:47:53;;;;;;;4.43;2.97;;;;;;;21.84;73.15;96306.31;5009290;28;20045;-64
2021/07/31 06:50:19;;;;;;;7.57;3.45;;;;;;;21.69;73.95;96314.38;5002718;28;20089;-63
2021/07/31 06:52:45;;;;;;;4.75;2.90;;;;;;;21.68;74.99;96315.59;5009644;28;20052;-61
2021/07/31 06:55:11;;;;;;;7.15;2.92;;;;;;;22.06;72.10;96311.94;4995218;28;20046;-60
2021/07/31 06:57:36;;;;;;;6.80;3.10;;;;;;;22.14;70.82;96313.22;5003853;28;20057;-62
2021/07/31 07:00:02;;;;;;;5.28;3.17;;;;;;;22.04;70.89;96315.16;5009995;28;20045;-63
2021/07/31 07:02:28;;;;;;;5.57;3.25;;;;;;;22.30;69.17;96310.25;4993216;28;20406;-61
2021/07/31 07:04:53;;;;;;;4.18;2.72;;;;;;;23.16;65.87;96306.25;5011164;28;20121;-63
2021/07/31 07:07:19;;;;;;;6.22;2.75;;;;;;;23.46;63.86;96304.66;5008031;28;20041;-62
2021/07/31 07:09:45;;;;;;;4.35;2.65;;;;;;;24.10;62.64;96311.56;5015862;28;20123;-61
2021/07/31 07:12:11;;;;;;;5.20;2.53;;;;;;;24.59;62.15;96307.81;5016178;28;20172;-62
2021/07/31 07:14:36;;;;;;;6.10;2.53;;;;;;;24.09;62.37;96314.84;5019063;28;20461;-62
2021/07/31 07:17:05;;;;;;;6.68;3.10;;;;;;;23.65;62.82;96327.03;5014530;28;20034;-64
2021/07/31 07:19:31;;;;;;;3.55;2.35;;;;;;;24.12;62.24;96314.69;5017576;28;20046;-62
2021/07/31 07:21:56;;;;;;;3.83;2.47;;;;;;;24.54;60.10;96322.47;5017558;28;20037;-61
2021/07/31 07:24:22;;;;;;;4.78;2.80;;;;;;;23.80;63.71;96322.41;5013182;28;20056;-63
2021/07/31 07:26:47;;;;;;;7.03;3.05;;;;;;;24.16;62.60;96322.91;5014106;28;20049;-63
2021/07/31 07:29:13;;;;;;;11.88;2.58;;;;;;;24.37;62.02;96318.41;5005703;28;20061;-63
2021/07/31 07:31:38;;;;;;;7.43;2.60;;;;;;;25.01;59.70;96311.88;5016366;28;20185;-62
2021/07/31 07:34:03;;;;;;;5.90;2.63;;;;;;;26.97;52.41;96310.81;5002136;28;20105;-64
2021/07/31 07:36:29;;;;;;;5.60;3.00;;;;;;;27.54;49.39;96309.66;5010332;28;20045;-63
2021/07/31 07:38:54;;;;;;;7.75;2.50;;;;;;;27.76;47.90;96311.22;5006153;28;20042;-62
2021/07/31 07:41:20;;;;;;;6.78;2.70;;;;;;;26.86;51.47;96308.56;5002379;28;20042;-63
2021/07/31 07:43:45;;;;;;;7.18;2.72;;;;;;;25.85;53.91;96312.25;5004556;28;20079;-62
2021/07/31 07:46:15;;;;;;;3.83;2.15;;;;;;;25.86;52.49;96316.63;5012685;28;20128;-62
2021/07/31 07:48:45;;;;;;;9.43;2.47;;;;;;;25.70;53.55;96312.22;5016120;28;20037;-63
2021/07/31 07:51:10;;;;;;;;;;;;;;;25.18;56.38;96313.06;5019342;28;20390;-62
2021/07/31 07:53:36;;;;;;;6.53;2.70;;;;;;;25.17;55.61;96313.53;5024379;28;19913;-62
2021/07/31 07:56:02;;;;;;;6.10;2.65;;;;;;;24.95;56.82;96314.56;5014176;28;20465;-61
2021/07/31 07:58:28;;;;;;;3.80;2.70;;;;;;;24.96;57.41;96315.34;5005965;28;20044;-63
2021/07/31 08:00:53;;;;;;;8.18;2.50;;;;;;;24.65;58.27;96312.78;5018854;28;20041;-63
2021/07/31 08:03:19;;;;;;;6.72;2.33;;;;;;;24.39;58.17;96321.50;5005507;28;20091;-61
2021/07/31 08:05:44;;;;;;;3.25;2.03;;;;;;;24.78;57.02;96316.94;5006957;28;20131;-62
2021/07/31 08:08:09;;;;;;;4.97;2.35;;;;;;;24.82;56.04;96325.19;5007401;28;20045;-63
2021/07/31 08:10:35;;;;;;;4.95;2.35;;;;;;;25.33;55.01;96321.59;5009033;28;20561;-63
2021/07/31 08:13:01;;;;;;;4.97;2.50;;;;;;;24.48;57.04;96315.88;5010045;28;20041;-62
2021/07/31 08:15:26;;;;;;;4.38;2.30;;;;;;;24.18;57.80;96317.63;5001893;28;20068;-63
2021/07/31 08:17:52;;;;;;;5.53;2.55;;;;;;;24.19;57.02;96322.00;5008027;28;20042;-61
2021/07/31 08:20:18;;;;;;;6.40;2.40;;;;;;;23.62;59.85;96325.97;5006486;28;20033;-63
2021/07/31 08:22:43;;;;;;;4.35;2.50;;;;;;;23.28;61.97;96324.94;5013933;28;20733;-62
2021/07/31 08:25:09;;;;;;;9.23;2.80;;;;;;;23.13;61.97;96329.53;5014235;28;20054;-61
2021/07/31 08:27:35;;;;;;;6.10;2.72;;;;;;;23.30;61.95;96330.06;5012569;28;20387;-62
2021/07/31 08:30:02;;;;;;;7.47;2.90;;;;;;;23.12;63.36;96335.56;5022578;28;20109;-63
2021/07/31 08:32:27;;;;;;;6.60;3.10;;;;;;;23.28;61.92;96324.13;5016332;28;20041;-64
2021/07/31 08:34:53;;;;;;;6.20;3.05;;;;;;;23.15;61.11;96329.84;5019876;28;20038;-62
2021/07/31 08:37:18;;;;;;;13.50;8.35;;;;;;;23.85;59.65;96329.44;5010239;28;20038;-62
2021/07/31 08:39:44;;;;;;;4.70;2.88;;;;;;;24.09;59.90;96323.22;5019290;28;20643;-64
2021/07/31 08:42:11;;;;;;;6.38;2.63;;;;;;;24.22;57.29;96330.22;5012794;28;20925;-64
2021/07/31 08:44:37;;;;;;;4.15;2.85;;;;;;;24.16;58.01;96317.31;5001405;28;20049;-64
2021/07/31 08:47:04;;;;;;;3.83;2.30;;;;;;;25.08;53.57;96319.94;5007876;28;20040;-65
2021/07/31 08:49:33;;;;;;;6.28;2.20;;;;;;;25.09;53.81;96317.94;5011961;28;20049;-63
2021/07/31 08:52:00;;;;;;;5.30;2.23;;;;;;;24.45;55.49;96314.03;5002110;28;20050;-63
2021/07/31 08:54:26;;;;;;;4.35;2.33;;;;;;;24.36;56.33;96314.84;4999252;28;20800;-61
2021/07/31 08:56:53;;;;;;;4.10;1.73;;;;;;;24.76;54.57;96321.47;5008030;28;20046;-63
2021/07/31 08:59:24;;;;;;;4.45;2.30;;;;;;;25.63;50.87;96313.34;4998993;28;20096;-64
2021/07/31 09:01:50;;;;;;;5.38;1.90;;;;;;;26.50;48.88;96313.28;5009974;28;20049;-63
2021/07/31 09:04:16;;;;;;;5.57;2.40;;;;;;;26.02;52.08;96313.41;5010134;28;20034;-65
2021/07/31 09:06:42;;;;;;;4.35;2.20;;;;;;;26.12;52.67;96309.25;5018414;28;20049;-63
2021/07/31 09:09:08;;;;;;;4.72;2.15;;;;;;;28.03;46.23;96310.81;5015427;28;20049;-61
2021/07/31 09:11:34;;;;;;;8.63;1.95;;;;;;;28.28;44.22;96310.59;5002840;28;20049;-63
2021/07/31 09:14:15;;;;;;;3.53;1.90;;;;;;;27.48;46.48;96310.81;5009891;28;20077;-62
2021/07/31 09:16:43;;;;;;;5.75;3.10;;;;;;;27.16;47.62;96316.22;4996695;28;20137;-61
2021/07/31 09:19:12;;;;;;;6.20;2.63;;;;;;;26.73;48.96;96321.38;4991645;28;20582;-63
2021/07/31 09:21:40;;;;;;;4.18;1.92;;;;;;;26.76;47.32;96315.56;5015218;28;20300;-63
2021/07/31 09:24:20;;;;;;;5.20;2.20;;;;;;;27.16;47.03;96319.03;5007608;28;20033;-62
2021/07/31 09:26:49;;;;;;;6.50;2.00;;;;;;;26.88;46.74;96308.09;5020901;28;20454;-62
2021/07/31 09:29:17;;;;;;;4.13;1.90;;;;;;;26.40;49.49;96309.03;5015910;28;20057;-63
2021/07/31 09:31:46;;;;;;;4.45;2.42;;;;;;;25.64;50.88;96303.69;5020521;28;20095;-63
2021/07/31 09:34:23;;;;;;;7.07;2.17;;;;;;;26.50;50.02;96292.88;5007681;28;20092;-63
2021/07/31 09:36:49;;;;;;;6.50;2.33;;;;;;;26.62;48.14;96296.69;5017417;28;20038;-63
2021/07/31 09:39:14;;;;;;;6.63;2.13;;;;;;;27.07;47.32;96289.75;5007080;28;20045;-64
2021/07/31 09:41:41;;;;;;;6.22;2.15;;;;;;;27.34;46.51;96292.75;5009056;28;20046;-62
2021/07/31 09:44:17;;;;;;;3.70;1.92;;;;;;;27.87;46.18;96286.03;5002519;28;20065;-63
2021/07/31 09:46:50;;;;;;;4.85;1.70;;;;;;;28.40;43.38;96284.09;5010486;28;20042;-63
2021/07/31 09:49:22;;;;;;;4.82;2.30;;;;;;;28.65;43.66;96278.97;5005435;28;20544;-63
2021/07/31 09:51:50;;;;;;;7.32;1.85;;;;;;;28.45;43.75;96283.41;5018121;28;20038;-63
2021/07/31 09:54:18;;;;;;;5.55;2.10;;;;;;;27.96;43.73;96285.16;5000991;28;20048;-63
2021/07/31 09:56:51;;;;;;;6.32;2.00;;;;;;;28.09;43.46;96279.94;5011275;28;20141;-63
2021/07/31 09:59:18;;;;;;;4.32;1.70;;;;;;;27.41;45.20;96279.06;5000625;28;20056;-61
2021/07/31 10:01:47;;;;;;;5.15;1.88;;;;;;;26.58;45.67;96276.41;5014397;28;20052;-62
2021/07/31 10:04:12;;;;;;;3.10;1.90;;;;;;;27.26;44.48;96276.28;5000724;28;20045;-61
2021/07/31 10:06:38;;;;;;;4.03;1.63;;;;;;;27.14;45.39;96282.97;5008485;28;20042;-63
2021/07/31 10:09:05;;;;;;;5.95;1.80;;;;;;;27.52;43.91;96272.03;4995394;28;20053;-64
2021/07/31 10:11:33;;;;;;;7.47;1.90;;;;;;;26.37;47.19;96270.69;5010015;28;20041;-63
2021/07/31 10:14:00;;;;;;;3.35;1.63;;;;;;;27.96;43.66;96263.41;5002278;28;20038;-62
2021/07/31 10:16:26;;;;;;;3.22;1.35;;;;;;;28.55;42.74;96262.25;5005831;28;20075;-62
2021/07/31 10:18:56;;;;;;;4.65;1.45;;;;;;;28.75;41.50;96267.03;5011042;28;20049;-62
2021/07/31 10:21:22;;;;;;;4.30;1.75;;;;;;;27.71;43.32;96273.28;5008558;28;20398;-62
2021/07/31 10:24:02;;;;;;;12.05;1.70;;;;;;;26.35;46.32;96275.25;5000129;28;20056;-63
2021/07/31 10:26:30;;;;;;;30.13;20.48;;;;;;;25.64;49.75;96277.66;4996802;28;20053;-63
2021/07/31 10:29:27;;;;;;;4.85;2.38;;;;;;;25.35;48.87;96273.47;4990482;28;20046;-64
2021/07/31 10:31:54;;;;;;;5.22;1.60;;;;;;;25.61;46.74;96273.78;5009236;28;20053;-63
2021/07/31 10:34:56;;;;;;;5.93;1.30;;;;;;;26.03;45.82;96263.69;5010640;28;20563;-63
2021/07/31 10:37:27;;;;;;;4.35;1.60;;;;;;;26.01;46.09;96263.38;5014788;28;20073;-63
2021/07/31 10:39:53;;;;;;;4.03;1.40;;;;;;;25.58;46.76;96266.31;5018283;28;20042;-63
2021/07/31 10:42:19;;;;;;;2.30;1.17;;;;;;;24.99;48.17;96269.56;5024567;28;20124;-63
2021/07/31 10:45:15;;;;;;;4.65;1.60;;;;;;;24.91;48.80;96271.94;5023975;28;20038;-63
2021/07/31 10:47:41;;;;;;;4.88;1.88;;;;;;;25.22;47.21;96270.88;5011913;28;20057;-63
2021/07/31 10:50:22;;;;;;;6.03;1.80;;;;;;;25.69;46.78;96277.75;5015986;28;20132;-62
2021/07/31 10:52:56;;;;;;;5.15;2.30;;;;;;;26.26;45.35;96281.72;5020510;28;20132;-61
2021/07/31 10:55:22;;;;;;;3.28;1.25;;;;;;;26.40;44.02;96280.97;5014309;28;20045;-63
2021/07/31 10:57:54;;;;;;;3.67;1.23;;;;;;;26.02;44.27;96281.75;5019182;28;20493;-64
2021/07/31 11:00:38;;;;;;;3.45;1.40;;;;;;;25.79;45.01;96277.72;5000734;28;20145;-63
2021/07/31 11:03:25;;;;;;;11.75;6.80;;;;;;;26.30;45.04;96276.69;5003052;28;20095;-65
2021/07/31 11:06:06;;;;;;;5.25;1.92;;;;;;;26.53;44.43;96269.44;4985312;28;20038;-64
2021/07/31 11:08:54;;;;;;;3.40;1.27;;;;;;;26.30;43.90;96271.84;4999867;28;20489;-63
2021/07/31 11:11:19;;;;;;;2.95;1.20;;;;;;;26.80;42.95;96276.06;4994451;28;20496;-62
2021/07/31 11:13:45;;;;;;;5.88;1.42;;;;;;;26.88;42.71;96269.56;5002111;28;20133;-62
2021/07/31 11:16:13;;;;;;;3.40;1.30;;;;;;;26.91;43.62;96265.00;5009060;28;20521;-62
2021/07/31 11:18:43;;;;;;;3.70;1.00;;;;;;;26.84;42.57;96268.19;5007033;28;20038;-62
2021/07/31 11:21:10;;;;;;;3.30;1.00;;;;;;;26.37;43.31;96261.50;4994737;28;20038;-62
2021/07/31 11:23:39;;;;;;;4.00;1.10;;;;;;;26.39;43.40;96261.78;4999827;28;20133;-62
2021/07/31 11:26:04;;;;;;;5.05;1.50;;;;;;;26.33;43.75;96256.84;4994957;28;20041;-64